< < Back
Terminal Aerodrome Forecast


Current Version              Previous Versions:   1  2  3  4  5  6  7  8  9  

Terminal Aerodrome Forecast

506
FTUS42 KTAE 231100
TAFABY
TAF
KABY 231120Z 2312/2412 04005KT P6SM SKC=

Latest METAR

665
SAUS70 KWBC 241700 RRC
MTRABY
METAR KABY 241653Z VRB03KT 10SM CLR 22/07 A3006 RMK AO2 SLP180 T02220067
$


USA.gov is the U.S. government's official web portal to all federal, state and local government web resources and services.